sensor_id;sensor_type;location;lat;lon;timestamp;temperature;humidity
56300;DHT22;42209;6.376;-10.782;2023-02-01T00:01:07;23.20;49.50
56300;DHT22;42209;6.376;-10.782;2023-02-01T00:03:36;22.90;48.10
56300;DHT22;42209;6.376;-10.782;2023-02-01T00:06:04;22.70;46.80
56300;DHT22;42209;6.376;-10.782;2023-02-01T00:08:33;22.60;46.00
56300;DHT22;42209;6.376;-10.782;2023-02-01T00:11:07;22.50;45.10
56300;DHT22;42209;6.376;-10.782;2023-02-01T00:13:38;22.40;44.50
56300;DHT22;42209;6.376;-10.782;2023-02-01T00:16:15;22.40;43.80
56300;DHT22;42209;6.376;-10.782;2023-02-01T00:18:46;22.30;43.10
56300;DHT22;42209;6.376;-10.782;2023-02-01T00:21:17;22.30;42.90
56300;DHT22;42209;6.376;-10.782;2023-02-01T00:23:46;22.30;42.40
56300;DHT22;42209;6.376;-10.782;2023-02-01T00:26:22;22.30;41.90
56300;DHT22;42209;6.376;-10.782;2023-02-01T00:28:53;22.20;41.70
56300;DHT22;42209;6.376;-10.782;2023-02-01T00:31:23;22.30;41.10
56300;DHT22;42209;6.376;-10.782;2023-02-01T00:33:54;22.30;41.10
56300;DHT22;42209;6.376;-10.782;2023-02-01T00:36:23;22.30;40.50
56300;DHT22;42209;6.376;-10.782;2023-02-01T00:38:51;22.20;40.20
56300;DHT22;42209;6.376;-10.782;2023-02-01T00:41:21;22.20;40.10
56300;DHT22;42209;6.376;-10.782;2023-02-01T00:43:50;22.20;39.70
56300;DHT22;42209;6.376;-10.782;2023-02-01T00:46:21;22.30;39.10
56300;DHT22;42209;6.376;-10.782;2023-02-01T00:48:50;22.30;39.00
56300;DHT22;42209;6.376;-10.782;2023-02-01T00:51:20;22.30;38.60
56300;DHT22;42209;6.376;-10.782;2023-02-01T00:53:48;22.30;38.50
56300;DHT22;42209;6.376;-10.782;2023-02-01T00:56:17;22.40;40.70
56300;DHT22;42209;6.376;-10.782;2023-02-01T00:58:45;22.50;45.30
56300;DHT22;42209;6.376;-10.782;2023-02-01T01:01:19;22.70;48.50
56300;DHT22;42209;6.376;-10.782;2023-02-01T01:03:56;22.80;50.80
56300;DHT22;42209;6.376;-10.782;2023-02-01T01:06:27;22.90;52.60
56300;DHT22;42209;6.376;-10.782;2023-02-01T01:08:57;23.10;53.30
56300;DHT22;42209;6.376;-10.782;2023-02-01T01:11:29;23.20;53.90
56300;DHT22;42209;6.376;-10.782;2023-02-01T01:13:59;23.40;54.00
56300;DHT22;42209;6.376;-10.782;2023-02-01T01:16:30;23.30;50.50
56300;DHT22;42209;6.376;-10.782;2023-02-01T01:18:59;23.10;48.70
56300;DHT22;42209;6.376;-10.782;2023-02-01T01:21:28;23.00;49.80
56300;DHT22;42209;6.376;-10.782;2023-02-01T01:23:56;23.00;55.70
56300;DHT22;42209;6.376;-10.782;2023-02-01T01:26:29;23.10;57.50
56300;DHT22;42209;6.376;-10.782;2023-02-01T01:28:59;23.20;57.10
56300;DHT22;42209;6.376;-10.782;2023-02-01T01:31:28;23.50;56.50
56300;DHT22;42209;6.376;-10.782;2023-02-01T01:33:58;23.40;51.80
56300;DHT22;42209;6.376;-10.782;2023-02-01T01:36:28;23.20;49.80
56300;DHT22;42209;6.376;-10.782;2023-02-01T01:38:57;22.90;48.60
56300;DHT22;42209;6.376;-10.782;2023-02-01T01:41:29;22.80;47.50
56300;DHT22;42209;6.376;-10.782;2023-02-01T01:44:05;22.70;46.60
56300;DHT22;42209;6.376;-10.782;2023-02-01T01:46:34;22.60;45.50
56300;DHT22;42209;6.376;-10.782;2023-02-01T01:49:20;22.50;44.60
56300;DHT22;42209;6.376;-10.782;2023-02-01T01:51:53;22.50;44.30
56300;DHT22;42209;6.376;-10.782;2023-02-01T01:54:29;22.40;43.50
56300;DHT22;42209;6.376;-10.782;2023-02-01T01:57:08;22.40;42.60
56300;DHT22;42209;6.376;-10.782;2023-02-01T01:59:42;22.40;42.50
56300;DHT22;42209;6.376;-10.782;2023-02-01T02:02:13;22.30;41.80
56300;DHT22;42209;6.376;-10.782;2023-02-01T02:04:42;22.30;41.20
56300;DHT22;42209;6.376;-10.782;2023-02-01T02:07:17;22.20;40.90
56300;DHT22;42209;6.376;-10.782;2023-02-01T02:09:47;22.20;40.70
56300;DHT22;42209;6.376;-10.782;2023-02-01T02:12:27;22.20;40.20
56300;DHT22;42209;6.376;-10.782;2023-02-01T02:14:55;22.10;40.00
56300;DHT22;42209;6.376;-10.782;2023-02-01T02:23:25;22.60;49.90
56300;DHT22;42209;6.376;-10.782;2023-02-01T02:34:14;23.10;57.60
56300;DHT22;42209;6.376;-10.782;2023-02-01T02:37:01;23.20;58.40
56300;DHT22;42209;6.376;-10.782;2023-02-01T02:45:13;23.10;51.90
56300;DHT22;42209;6.376;-10.782;2023-02-01T02:53:13;22.70;48.50
56300;DHT22;42209;6.376;-10.782;2023-02-01T02:55:43;22.60;47.70
56300;DHT22;42209;6.376;-10.782;2023-02-01T02:58:13;22.60;47.00
56300;DHT22;42209;6.376;-10.782;2023-02-01T03:00:44;22.50;46.40
56300;DHT22;42209;6.376;-10.782;2023-02-01T03:03:14;22.50;45.80
56300;DHT22;42209;6.376;-10.782;2023-02-01T03:05:47;22.40;45.20
56300;DHT22;42209;6.376;-10.782;2023-02-01T03:08:21;22.40;44.80
56300;DHT22;42209;6.376;-10.782;2023-02-01T03:11:08;22.40;44.50
56300;DHT22;42209;6.376;-10.782;2023-02-01T03:13:59;22.30;43.90
56300;DHT22;42209;6.376;-10.782;2023-02-01T03:16:36;22.40;43.50
56300;DHT22;42209;6.376;-10.782;2023-02-01T03:19:24;22.30;43.00
56300;DHT22;42209;6.376;-10.782;2023-02-01T03:22:06;22.40;42.60
56300;DHT22;42209;6.376;-10.782;2023-02-01T03:24:45;22.30;42.30
56300;DHT22;42209;6.376;-10.782;2023-02-01T03:27:29;22.30;42.00
56300;DHT22;42209;6.376;-10.782;2023-02-01T03:30:08;22.30;41.30
56300;DHT22;42209;6.376;-10.782;2023-02-01T03:32:40;22.40;40.70
56300;DHT22;42209;6.376;-10.782;2023-02-01T03:35:10;22.40;41.70
56300;DHT22;42209;6.376;-10.782;2023-02-01T03:37:39;22.50;45.30
56300;DHT22;42209;6.376;-10.782;2023-02-01T03:40:08;22.60;48.40
56300;DHT22;42209;6.376;-10.782;2023-02-01T03:42:43;22.80;51.20
56300;DHT22;42209;6.376;-10.782;2023-02-01T03:45:28;22.80;52.90
56300;DHT22;42209;6.376;-10.782;2023-02-01T03:48:00;23.00;54.50
56300;DHT22;42209;6.376;-10.782;2023-02-01T03:50:31;23.10;55.20
56300;DHT22;42209;6.376;-10.782;2023-02-01T03:53:11;23.20;55.20
56300;DHT22;42209;6.376;-10.782;2023-02-01T03:55:44;23.40;55.70
56300;DHT22;42209;6.376;-10.782;2023-02-01T03:58:16;23.30;51.30
56300;DHT22;42209;6.376;-10.782;2023-02-01T04:00:54;23.10;49.10
56300;DHT22;42209;6.376;-10.782;2023-02-01T04:03:24;22.90;51.00
56300;DHT22;42209;6.376;-10.782;2023-02-01T04:05:55;23.00;56.50
56300;DHT22;42209;6.376;-10.782;2023-02-01T04:08:27;23.00;58.10
56300;DHT22;42209;6.376;-10.782;2023-02-01T04:10:55;23.20;57.10
56300;DHT22;42209;6.376;-10.782;2023-02-01T04:13:23;23.30;56.70
56300;DHT22;42209;6.376;-10.782;2023-02-01T04:15:51;23.40;53.50
56300;DHT22;42209;6.376;-10.782;2023-02-01T04:18:20;23.20;50.80
56300;DHT22;42209;6.376;-10.782;2023-02-01T04:20:48;22.90;49.60
56300;DHT22;42209;6.376;-10.782;2023-02-01T04:23:16;22.70;48.40
56300;DHT22;42209;6.376;-10.782;2023-02-01T04:25:44;22.70;47.50
56300;DHT22;42209;6.376;-10.782;2023-02-01T04:28:12;22.60;46.50
56300;DHT22;42209;6.376;-10.782;2023-02-01T04:30:41;22.50;45.90
56300;DHT22;42209;6.376;-10.782;2023-02-01T04:33:09;22.40;44.70
56300;DHT22;42209;6.376;-10.782;2023-02-01T04:35:37;22.40;44.10
56300;DHT22;42209;6.376;-10.782;2023-02-01T04:38:06;22.20;43.60
56300;DHT22;42209;6.376;-10.782;2023-02-01T04:40:34;22.20;43.20
56300;DHT22;42209;6.376;-10.782;2023-02-01T04:43:02;22.20;42.80
56300;DHT22;42209;6.376;-10.782;2023-02-01T04:45:31;22.20;42.10
56300;DHT22;42209;6.376;-10.782;2023-02-01T04:47:59;22.20;41.80
56300;DHT22;42209;6.376;-10.782;2023-02-01T04:50:27;22.20;41.50
56300;DHT22;42209;6.376;-10.782;2023-02-01T04:52:55;22.20;40.90
56300;DHT22;42209;6.376;-10.782;2023-02-01T04:55:24;22.20;40.40
56300;DHT22;42209;6.376;-10.782;2023-02-01T04:57:52;22.30;39.90
56300;DHT22;42209;6.376;-10.782;2023-02-01T05:00:20;22.30;39.40
56300;DHT22;42209;6.376;-10.782;2023-02-01T05:02:49;22.40;41.20
56300;DHT22;42209;6.376;-10.782;2023-02-01T05:05:17;22.50;45.80
56300;DHT22;42209;6.376;-10.782;2023-02-01T05:07:46;22.60;49.50
56300;DHT22;42209;6.376;-10.782;2023-02-01T05:10:14;22.70;51.40
56300;DHT22;42209;6.376;-10.782;2023-02-01T05:12:44;22.80;53.20
56300;DHT22;42209;6.376;-10.782;2023-02-01T05:15:12;22.90;54.10
56300;DHT22;42209;6.376;-10.782;2023-02-01T05:17:40;23.10;54.70
56300;DHT22;42209;6.376;-10.782;2023-02-01T05:20:09;23.20;54.80
56300;DHT22;42209;6.376;-10.782;2023-02-01T05:22:38;23.30;54.50
56300;DHT22;42209;6.376;-10.782;2023-02-01T05:25:06;23.40;52.90
56300;DHT22;42209;6.376;-10.782;2023-02-01T05:27:35;23.20;50.20
56300;DHT22;42209;6.376;-10.782;2023-02-01T05:30:08;22.90;48.90
56300;DHT22;42209;6.376;-10.782;2023-02-01T05:32:36;22.90;55.10
56300;DHT22;42209;6.376;-10.782;2023-02-01T05:35:05;22.90;58.00
56300;DHT22;42209;6.376;-10.782;2023-02-01T05:37:33;23.00;59.20
56300;DHT22;42209;6.376;-10.782;2023-02-01T05:40:01;23.20;57.90
56300;DHT22;42209;6.376;-10.782;2023-02-01T05:42:29;23.40;57.90
56300;DHT22;42209;6.376;-10.782;2023-02-01T05:44:57;23.40;54.10
56300;DHT22;42209;6.376;-10.782;2023-02-01T05:47:26;23.20;51.80
56300;DHT22;42209;6.376;-10.782;2023-02-01T05:49:54;22.90;50.30
56300;DHT22;42209;6.376;-10.782;2023-02-01T05:52:22;22.70;49.50
56300;DHT22;42209;6.376;-10.782;2023-02-01T05:54:50;22.60;48.20
56300;DHT22;42209;6.376;-10.782;2023-02-01T05:57:18;22.50;47.40
56300;DHT22;42209;6.376;-10.782;2023-02-01T05:59:47;22.40;46.70
56300;DHT22;42209;6.376;-10.782;2023-02-01T06:02:16;22.40;45.70
56300;DHT22;42209;6.376;-10.782;2023-02-01T06:04:44;22.30;45.10
56300;DHT22;42209;6.376;-10.782;2023-02-01T06:07:12;22.30;44.90
56300;DHT22;42209;6.376;-10.782;2023-02-01T06:09:44;22.50;49.50
56300;DHT22;42209;6.376;-10.782;2023-02-01T06:12:12;22.60;54.10
56300;DHT22;42209;6.376;-10.782;2023-02-01T06:14:40;22.70;56.10
56300;DHT22;42209;6.376;-10.782;2023-02-01T06:17:09;22.80;57.90
56300;DHT22;42209;6.376;-10.782;2023-02-01T06:19:37;22.90;59.70
56300;DHT22;42209;6.376;-10.782;2023-02-01T06:22:05;23.00;61.00
56300;DHT22;42209;6.376;-10.782;2023-02-01T06:24:34;23.10;61.20
56300;DHT22;42209;6.376;-10.782;2023-02-01T06:27:02;23.20;61.50
56300;DHT22;42209;6.376;-10.782;2023-02-01T06:29:30;23.30;61.60
56300;DHT22;42209;6.376;-10.782;2023-02-01T06:31:59;23.40;61.30
56300;DHT22;42209;6.376;-10.782;2023-02-01T06:34:27;23.40;57.50
56300;DHT22;42209;6.376;-10.782;2023-02-01T06:36:56;23.20;54.50
56300;DHT22;42209;6.376;-10.782;2023-02-01T06:39:24;22.90;52.60
56300;DHT22;42209;6.376;-10.782;2023-02-01T06:41:52;22.70;51.40
56300;DHT22;42209;6.376;-10.782;2023-02-01T06:44:20;22.60;50.00
56300;DHT22;42209;6.376;-10.782;2023-02-01T06:46:49;22.50;48.60
56300;DHT22;42209;6.376;-10.782;2023-02-01T06:49:17;22.40;47.70
56300;DHT22;42209;6.376;-10.782;2023-02-01T06:51:45;22.30;46.80
56300;DHT22;42209;6.376;-10.782;2023-02-01T06:54:14;22.30;46.30
56300;DHT22;42209;6.376;-10.782;2023-02-01T06:56:42;22.20;45.90
56300;DHT22;42209;6.376;-10.782;2023-02-01T06:59:10;22.30;45.40
56300;DHT22;42209;6.376;-10.782;2023-02-01T07:01:39;22.20;45.70
56300;DHT22;42209;6.376;-10.782;2023-02-01T07:04:10;22.30;49.80
56300;DHT22;42209;6.376;-10.782;2023-02-01T07:06:39;22.50;53.90
56300;DHT22;42209;6.376;-10.782;2023-02-01T07:09:08;22.70;57.00
56300;DHT22;42209;6.376;-10.782;2023-02-01T07:11:37;22.80;60.20
56300;DHT22;42209;6.376;-10.782;2023-02-01T07:14:05;22.90;62.90
56300;DHT22;42209;6.376;-10.782;2023-02-01T07:16:33;23.00;65.70
56300;DHT22;42209;6.376;-10.782;2023-02-01T07:19:02;23.10;68.20
56300;DHT22;42209;6.376;-10.782;2023-02-01T07:21:31;23.20;71.40
56300;DHT22;42209;6.376;-10.782;2023-02-01T07:24:00;23.30;71.90
56300;DHT22;42209;6.376;-10.782;2023-02-01T07:26:28;23.50;74.10
56300;DHT22;42209;6.376;-10.782;2023-02-01T07:28:56;23.40;66.70
56300;DHT22;42209;6.376;-10.782;2023-02-01T07:31:24;23.20;63.40
56300;DHT22;42209;6.376;-10.782;2023-02-01T07:33:53;23.00;64.50
56300;DHT22;42209;6.376;-10.782;2023-02-01T07:36:21;22.90;62.70
56300;DHT22;42209;6.376;-10.782;2023-02-01T07:38:49;22.80;61.80
56300;DHT22;42209;6.376;-10.782;2023-02-01T07:41:18;22.70;60.10
56300;DHT22;42209;6.376;-10.782;2023-02-01T07:43:46;22.70;59.50
56300;DHT22;42209;6.376;-10.782;2023-02-01T07:46:14;22.60;59.00
56300;DHT22;42209;6.376;-10.782;2023-02-01T07:48:43;22.60;58.50
56300;DHT22;42209;6.376;-10.782;2023-02-01T07:51:14;22.50;57.10
56300;DHT22;42209;6.376;-10.782;2023-02-01T07:53:43;22.40;55.80
56300;DHT22;42209;6.376;-10.782;2023-02-01T07:56:14;22.40;54.80
56300;DHT22;42209;6.376;-10.782;2023-02-01T07:58:48;22.40;53.70
56300;DHT22;42209;6.376;-10.782;2023-02-01T08:01:18;22.40;52.60
56300;DHT22;42209;6.376;-10.782;2023-02-01T08:03:55;22.30;52.00
56300;DHT22;42209;6.376;-10.782;2023-02-01T08:06:24;22.30;51.20
56300;DHT22;42209;6.376;-10.782;2023-02-01T08:08:53;22.30;50.90
56300;DHT22;42209;6.376;-10.782;2023-02-01T08:11:23;22.20;50.40
56300;DHT22;42209;6.376;-10.782;2023-02-01T08:13:52;22.20;49.70
56300;DHT22;42209;6.376;-10.782;2023-02-01T08:16:21;22.20;49.10
56300;DHT22;42209;6.376;-10.782;2023-02-01T08:18:51;22.10;48.90
56300;DHT22;42209;6.376;-10.782;2023-02-01T08:21:27;22.00;48.60
56300;DHT22;42209;6.376;-10.782;2023-02-01T08:23:56;22.20;53.00
56300;DHT22;42209;6.376;-10.782;2023-02-01T08:26:25;22.50;57.70
56300;DHT22;42209;6.376;-10.782;2023-02-01T08:28:56;22.60;60.80
56300;DHT22;42209;6.376;-10.782;2023-02-01T08:31:26;22.70;63.20
56300;DHT22;42209;6.376;-10.782;2023-02-01T08:33:57;22.80;65.10
56300;DHT22;42209;6.376;-10.782;2023-02-01T08:36:27;22.90;66.50
56300;DHT22;42209;6.376;-10.782;2023-02-01T08:38:59;23.00;67.70
56300;DHT22;42209;6.376;-10.782;2023-02-01T08:41:29;23.10;68.30
56300;DHT22;42209;6.376;-10.782;2023-02-01T08:43:58;23.20;69.80
56300;DHT22;42209;6.376;-10.782;2023-02-01T08:46:26;23.30;69.60
56300;DHT22;42209;6.376;-10.782;2023-02-01T08:48:54;23.40;70.10
56300;DHT22;42209;6.376;-10.782;2023-02-01T08:51:23;23.40;69.30
56300;DHT22;42209;6.376;-10.782;2023-02-01T08:53:52;23.30;64.30
56300;DHT22;42209;6.376;-10.782;2023-02-01T08:56:22;23.00;61.70
56300;DHT22;42209;6.376;-10.782;2023-02-01T08:58:51;22.80;60.80
56300;DHT22;42209;6.376;-10.782;2023-02-01T09:01:20;22.70;58.40
56300;DHT22;42209;6.376;-10.782;2023-02-01T09:03:48;22.60;57.10
56300;DHT22;42209;6.376;-10.782;2023-02-01T09:06:17;22.50;56.30
56300;DHT22;42209;6.376;-10.782;2023-02-01T09:08:45;22.50;55.30
56300;DHT22;42209;6.376;-10.782;2023-02-01T09:11:16;22.40;54.30
56300;DHT22;42209;6.376;-10.782;2023-02-01T09:13:45;22.40;53.60
56300;DHT22;42209;6.376;-10.782;2023-02-01T09:16:19;22.30;52.80
56300;DHT22;42209;6.376;-10.782;2023-02-01T09:18:48;22.30;52.80
56300;DHT22;42209;6.376;-10.782;2023-02-01T09:21:34;22.20;52.10
56300;DHT22;42209;6.376;-10.782;2023-02-01T09:24:02;22.20;51.70
56300;DHT22;42209;6.376;-10.782;2023-02-01T09:26:31;22.20;51.50
56300;DHT22;42209;6.376;-10.782;2023-02-01T09:29:00;22.10;50.80
56300;DHT22;42209;6.376;-10.782;2023-02-01T09:31:29;22.20;53.50
56300;DHT22;42209;6.376;-10.782;2023-02-01T09:33:57;22.20;53.80
56300;DHT22;42209;6.376;-10.782;2023-02-01T09:36:26;22.20;51.90
56300;DHT22;42209;6.376;-10.782;2023-02-01T09:38:58;22.20;51.30
56300;DHT22;42209;6.376;-10.782;2023-02-01T09:44:41;22.10;50.60
56300;DHT22;42209;6.376;-10.782;2023-02-01T09:47:17;22.10;50.00
56300;DHT22;42209;6.376;-10.782;2023-02-01T09:50:02;22.00;49.30
56300;DHT22;42209;6.376;-10.782;2023-02-01T09:55:48;22.40;57.80
56300;DHT22;42209;6.376;-10.782;2023-02-01T09:58:27;22.50;62.00
56300;DHT22;42209;6.376;-10.782;2023-02-01T10:01:00;22.70;64.10
56300;DHT22;42209;6.376;-10.782;2023-02-01T10:03:32;22.80;65.90
56300;DHT22;42209;6.376;-10.782;2023-02-01T10:06:24;22.90;67.60
56300;DHT22;42209;6.376;-10.782;2023-02-01T10:09:14;23.00;69.10
56300;DHT22;42209;6.376;-10.782;2023-02-01T10:25:59;22.90;60.50
56300;DHT22;42209;6.376;-10.782;2023-02-01T10:28:34;22.70;58.60
56300;DHT22;42209;6.376;-10.782;2023-02-01T10:31:05;22.60;57.50
56300;DHT22;42209;6.376;-10.782;2023-02-01T10:33:51;22.60;56.60
56300;DHT22;42209;6.376;-10.782;2023-02-01T10:36:33;22.50;55.00
56300;DHT22;42209;6.376;-10.782;2023-02-01T10:39:04;22.50;55.00
56300;DHT22;42209;6.376;-10.782;2023-02-01T10:41:38;22.50;53.60
56300;DHT22;42209;6.376;-10.782;2023-02-01T10:44:16;22.40;53.20
56300;DHT22;42209;6.376;-10.782;2023-02-01T18:23:02;22.40;40.40
56300;DHT22;42209;6.376;-10.782;2023-02-01T18:25:31;22.40;40.40
56300;DHT22;42209;6.376;-10.782;2023-02-01T18:27:59;22.40;40.30
56300;DHT22;42209;6.376;-10.782;2023-02-01T18:30:29;22.40;40.20
56300;DHT22;42209;6.376;-10.782;2023-02-01T18:32:58;22.40;39.90
56300;DHT22;42209;6.376;-10.782;2023-02-01T18:35:31;22.30;40.10
56300;DHT22;42209;6.376;-10.782;2023-02-01T18:38:00;22.40;40.40
56300;DHT22;42209;6.376;-10.782;2023-02-01T18:40:36;22.40;40.20
56300;DHT22;42209;6.376;-10.782;2023-02-01T18:43:09;22.40;39.90
56300;DHT22;42209;6.376;-10.782;2023-02-01T18:45:40;22.30;41.70
56300;DHT22;42209;6.376;-10.782;2023-02-01T18:48:10;22.60;45.30
56300;DHT22;42209;6.376;-10.782;2023-02-01T18:50:40;22.80;47.00
56300;DHT22;42209;6.376;-10.782;2023-02-01T18:53:18;22.90;47.70
56300;DHT22;42209;6.376;-10.782;2023-02-01T18:55:47;22.90;48.00
56300;DHT22;42209;6.376;-10.782;2023-02-01T18:58:16;23.00;47.40
56300;DHT22;42209;6.376;-10.782;2023-02-01T19:00:46;23.00;47.40
56300;DHT22;42209;6.376;-10.782;2023-02-01T19:03:15;23.00;47.30
56300;DHT22;42209;6.376;-10.782;2023-02-01T19:05:44;23.10;47.20
56300;DHT22;42209;6.376;-10.782;2023-02-01T19:08:13;23.00;46.70
56300;DHT22;42209;6.376;-10.782;2023-02-01T19:10:42;22.80;45.20
56300;DHT22;42209;6.376;-10.782;2023-02-01T19:13:11;22.70;44.50
56300;DHT22;42209;6.376;-10.782;2023-02-01T19:15:42;22.60;43.90
56300;DHT22;42209;6.376;-10.782;2023-02-01T19:18:10;22.50;43.20
56300;DHT22;42209;6.376;-10.782;2023-02-01T19:20:38;22.50;42.70
56300;DHT22;42209;6.376;-10.782;2023-02-01T19:23:07;22.50;42.10
56300;DHT22;42209;6.376;-10.782;2023-02-01T19:25:37;22.40;41.70
56300;DHT22;42209;6.376;-10.782;2023-02-01T19:28:05;22.40;41.50
56300;DHT22;42209;6.376;-10.782;2023-02-01T19:30:34;22.40;41.10
56300;DHT22;42209;6.376;-10.782;2023-02-01T19:33:02;22.30;41.00
56300;DHT22;42209;6.376;-10.782;2023-02-01T19:35:30;22.30;40.80
56300;DHT22;42209;6.376;-10.782;2023-02-01T19:37:59;22.40;40.70
56300;DHT22;42209;6.376;-10.782;2023-02-01T19:40:27;22.30;40.20
56300;DHT22;42209;6.376;-10.782;2023-02-01T19:42:55;22.20;40.30
56300;DHT22;42209;6.376;-10.782;2023-02-01T19:45:24;22.30;40.40
56300;DHT22;42209;6.376;-10.782;2023-02-01T19:47:52;22.20;40.10
56300;DHT22;42209;6.376;-10.782;2023-02-01T19:50:21;22.30;40.10
56300;DHT22;42209;6.376;-10.782;2023-02-01T19:52:49;22.30;40.00
56300;DHT22;42209;6.376;-10.782;2023-02-01T19:55:17;22.30;39.80
56300;DHT22;42209;6.376;-10.782;2023-02-01T19:57:46;22.30;39.40
56300;DHT22;42209;6.376;-10.782;2023-02-01T20:00:14;22.30;39.30
56300;DHT22;42209;6.376;-10.782;2023-02-01T20:02:43;22.20;39.00
56300;DHT22;42209;6.376;-10.782;2023-02-01T20:05:11;22.20;39.20
56300;DHT22;42209;6.376;-10.782;2023-02-01T20:07:39;22.30;39.50
56300;DHT22;42209;6.376;-10.782;2023-02-01T20:10:08;22.30;39.90
56300;DHT22;42209;6.376;-10.782;2023-02-01T20:12:36;22.20;39.30
56300;DHT22;42209;6.376;-10.782;2023-02-01T20:15:07;22.20;39.00
56300;DHT22;42209;6.376;-10.782;2023-02-01T20:17:36;22.20;38.60
56300;DHT22;42209;6.376;-10.782;2023-02-01T20:20:04;22.20;38.50
56300;DHT22;42209;6.376;-10.782;2023-02-01T20:22:33;22.20;38.60
56300;DHT22;42209;6.376;-10.782;2023-02-01T20:25:01;22.20;38.60
56300;DHT22;42209;6.376;-10.782;2023-02-01T20:27:30;22.20;38.40
56300;DHT22;42209;6.376;-10.782;2023-02-01T20:29:58;22.10;38.40
56300;DHT22;42209;6.376;-10.782;2023-02-01T20:32:26;22.10;38.40
56300;DHT22;42209;6.376;-10.782;2023-02-01T20:34:55;22.10;38.30
56300;DHT22;42209;6.376;-10.782;2023-02-01T20:37:23;22.20;38.20
56300;DHT22;42209;6.376;-10.782;2023-02-01T20:39:52;22.20;37.90
56300;DHT22;42209;6.376;-10.782;2023-02-01T20:42:20;22.10;38.40
56300;DHT22;42209;6.376;-10.782;2023-02-01T20:44:48;22.10;38.40
56300;DHT22;42209;6.376;-10.782;2023-02-01T20:47:17;22.20;38.20
56300;DHT22;42209;6.376;-10.782;2023-02-01T20:49:45;22.10;38.00
56300;DHT22;42209;6.376;-10.782;2023-02-01T20:52:13;22.20;38.30
56300;DHT22;42209;6.376;-10.782;2023-02-01T20:54:42;22.20;38.60
56300;DHT22;42209;6.376;-10.782;2023-02-01T20:57:10;22.10;38.40
56300;DHT22;42209;6.376;-10.782;2023-02-01T20:59:38;22.20;38.40
56300;DHT22;42209;6.376;-10.782;2023-02-01T21:02:09;22.10;38.20
56300;DHT22;42209;6.376;-10.782;2023-02-01T21:04:37;22.10;38.00
56300;DHT22;42209;6.376;-10.782;2023-02-01T21:07:06;22.10;37.80
56300;DHT22;42209;6.376;-10.782;2023-02-01T21:09:34;22.10;38.00
56300;DHT22;42209;6.376;-10.782;2023-02-01T21:12:03;22.00;38.00
56300;DHT22;42209;6.376;-10.782;2023-02-01T21:14:31;22.00;38.00
56300;DHT22;42209;6.376;-10.782;2023-02-01T21:17:00;22.10;38.20
56300;DHT22;42209;6.376;-10.782;2023-02-01T21:19:28;22.10;38.00
56300;DHT22;42209;6.376;-10.782;2023-02-01T21:21:56;22.10;38.20
56300;DHT22;42209;6.376;-10.782;2023-02-01T21:24:25;22.10;38.00
56300;DHT22;42209;6.376;-10.782;2023-02-01T21:26:54;22.10;38.10
56300;DHT22;42209;6.376;-10.782;2023-02-01T21:29:22;22.20;37.80
56300;DHT22;42209;6.376;-10.782;2023-02-01T21:31:50;22.10;37.90
56300;DHT22;42209;6.376;-10.782;2023-02-01T21:34:19;22.10;37.90
56300;DHT22;42209;6.376;-10.782;2023-02-01T21:36:47;22.20;37.50
56300;DHT22;42209;6.376;-10.782;2023-02-01T21:39:15;22.20;37.30
56300;DHT22;42209;6.376;-10.782;2023-02-01T21:41:44;22.20;37.00
56300;DHT22;42209;6.376;-10.782;2023-02-01T21:44:12;22.20;36.60
56300;DHT22;42209;6.376;-10.782;2023-02-01T21:46:42;22.40;38.90
56300;DHT22;42209;6.376;-10.782;2023-02-01T21:49:11;22.50;43.40
56300;DHT22;42209;6.376;-10.782;2023-02-01T21:51:39;22.60;46.50
56300;DHT22;42209;6.376;-10.782;2023-02-01T21:54:09;22.70;49.00
56300;DHT22;42209;6.376;-10.782;2023-02-01T21:56:38;22.90;50.70
56300;DHT22;42209;6.376;-10.782;2023-02-01T21:59:07;23.00;51.50
56300;DHT22;42209;6.376;-10.782;2023-02-01T22:01:37;23.10;52.40
56300;DHT22;42209;6.376;-10.782;2023-02-01T22:04:06;23.20;53.20
56300;DHT22;42209;6.376;-10.782;2023-02-01T22:06:39;23.30;51.80
56300;DHT22;42209;6.376;-10.782;2023-02-01T22:09:19;23.20;48.10
56300;DHT22;42209;6.376;-10.782;2023-02-01T22:11:50;23.00;46.60
56300;DHT22;42209;6.376;-10.782;2023-02-01T22:14:19;22.90;52.00
56300;DHT22;42209;6.376;-10.782;2023-02-01T22:16:48;23.10;55.40
56300;DHT22;42209;6.376;-10.782;2023-02-01T22:19:17;23.20;54.90
56300;DHT22;42209;6.376;-10.782;2023-02-01T22:21:46;23.40;54.70
56300;DHT22;42209;6.376;-10.782;2023-02-01T22:24:16;23.40;50.10
56300;DHT22;42209;6.376;-10.782;2023-02-01T22:26:45;23.20;48.50
56300;DHT22;42209;6.376;-10.782;2023-02-01T22:29:13;23.00;47.90
56300;DHT22;42209;6.376;-10.782;2023-02-01T22:31:42;22.80;46.20
56300;DHT22;42209;6.376;-10.782;2023-02-01T22:34:10;22.70;45.50
56300;DHT22;42209;6.376;-10.782;2023-02-01T22:36:40;22.60;44.90
56300;DHT22;42209;6.376;-10.782;2023-02-01T22:39:08;22.60;44.30
56300;DHT22;42209;6.376;-10.782;2023-02-01T22:41:37;22.50;43.80
56300;DHT22;42209;6.376;-10.782;2023-02-01T22:44:05;22.50;43.20
56300;DHT22;42209;6.376;-10.782;2023-02-01T22:46:34;22.50;42.60
56300;DHT22;42209;6.376;-10.782;2023-02-01T22:49:03;22.50;42.10
56300;DHT22;42209;6.376;-10.782;2023-02-01T22:51:32;22.40;41.70
56300;DHT22;42209;6.376;-10.782;2023-02-01T22:54:03;22.40;41.30
56300;DHT22;42209;6.376;-10.782;2023-02-01T22:56:35;22.40;41.50
56300;DHT22;42209;6.376;-10.782;2023-02-01T22:59:06;22.30;40.60
56300;DHT22;42209;6.376;-10.782;2023-02-01T23:01:36;22.30;40.40
56300;DHT22;42209;6.376;-10.782;2023-02-01T23:04:06;22.30;40.00
56300;DHT22;42209;6.376;-10.782;2023-02-01T23:06:36;22.20;39.80
56300;DHT22;42209;6.376;-10.782;2023-02-01T23:09:24;22.20;39.70
56300;DHT22;42209;6.376;-10.782;2023-02-01T23:11:53;22.20;39.50
56300;DHT22;42209;6.376;-10.782;2023-02-01T23:14:22;22.30;39.20
56300;DHT22;42209;6.376;-10.782;2023-02-01T23:16:50;22.20;39.40
56300;DHT22;42209;6.376;-10.782;2023-02-01T23:19:19;22.20;39.00
56300;DHT22;42209;6.376;-10.782;2023-02-01T23:21:47;22.20;38.90
56300;DHT22;42209;6.376;-10.782;2023-02-01T23:24:15;22.20;38.90
56300;DHT22;42209;6.376;-10.782;2023-02-01T23:26:44;22.10;38.80
56300;DHT22;42209;6.376;-10.782;2023-02-01T23:29:16;22.10;38.80
56300;DHT22;42209;6.376;-10.782;2023-02-01T23:31:44;22.10;38.60
56300;DHT22;42209;6.376;-10.782;2023-02-01T23:34:13;22.10;38.40
56300;DHT22;42209;6.376;-10.782;2023-02-01T23:36:41;22.10;38.50
56300;DHT22;42209;6.376;-10.782;2023-02-01T23:39:09;22.10;38.60
56300;DHT22;42209;6.376;-10.782;2023-02-01T23:41:38;22.10;38.10
56300;DHT22;42209;6.376;-10.782;2023-02-01T23:44:06;22.00;37.90
56300;DHT22;42209;6.376;-10.782;2023-02-01T23:46:39;22.00;38.00
56300;DHT22;42209;6.376;-10.782;2023-02-01T23:49:08;22.10;39.70
56300;DHT22;42209;6.376;-10.782;2023-02-01T23:51:37;22.40;44.50
56300;DHT22;42209;6.376;-10.782;2023-02-01T23:54:06;22.50;48.20
56300;DHT22;42209;6.376;-10.782;2023-02-01T23:56:40;22.70;50.50